createdAt,value
2023-04-17T00:01:55.486Z,2.10
2023-04-17T00:04:23.012Z,2.83
2023-04-17T00:06:53.735Z,2.50
2023-04-17T00:09:20.963Z,2.30
2023-04-17T00:11:48.162Z,2.30
2023-04-17T00:14:15.364Z,2.20
2023-04-17T00:16:42.557Z,2.40
2023-04-17T00:19:09.971Z,2.57
2023-04-17T00:21:37.341Z,2.50
2023-04-17T00:24:04.554Z,2.77
2023-04-17T00:26:34.453Z,3.23
2023-04-17T00:29:02.228Z,2.50
2023-04-17T00:31:29.457Z,3.63
2023-04-17T00:33:56.712Z,2.73
2023-04-17T00:36:23.851Z,2.83
2023-04-17T00:38:51.035Z,3.03
2023-04-17T00:41:18.240Z,2.60
2023-04-17T00:43:45.478Z,2.33
2023-04-17T00:46:13.172Z,2.83
2023-04-17T00:48:41.056Z,2.53
2023-04-17T00:51:08.298Z,2.30
2023-04-17T00:53:36.597Z,2.50
2023-04-17T00:56:06.368Z,2.63
2023-04-17T00:58:33.926Z,2.70
2023-04-17T01:01:01.220Z,2.43
2023-04-17T01:03:30.102Z,2.40
2023-04-17T01:05:57.540Z,2.40
2023-04-17T01:08:24.759Z,2.47
2023-04-17T01:10:51.918Z,2.43
2023-04-17T01:13:19.153Z,2.43
2023-04-17T01:15:47.117Z,2.50
2023-04-17T01:18:14.433Z,2.50
2023-04-17T01:20:41.625Z,2.50
2023-04-17T01:23:09.070Z,3.33
2023-04-17T01:25:36.326Z,2.80
2023-04-17T01:28:03.541Z,2.47
2023-04-17T01:30:30.751Z,2.70
2023-04-17T01:32:58.037Z,2.60
2023-04-17T01:35:25.204Z,2.73
2023-04-17T01:37:52.434Z,2.50
2023-04-17T01:40:19.680Z,4.73
2023-04-17T01:42:46.933Z,2.73
2023-04-17T01:45:14.113Z,3.73
2023-04-17T01:47:41.471Z,2.40
2023-04-17T01:50:09.290Z,2.87
2023-04-17T01:52:36.611Z,2.83
2023-04-17T01:55:04.329Z,3.33
2023-04-17T01:57:32.709Z,2.87
2023-04-17T01:59:59.966Z,2.80
2023-04-17T02:02:27.332Z,2.70
2023-04-17T02:04:54.624Z,2.93
2023-04-17T02:07:21.759Z,2.80
2023-04-17T02:09:48.955Z,2.60
2023-04-17T02:12:16.573Z,2.70
2023-04-17T02:14:43.838Z,2.60
2023-04-17T02:17:11.094Z,2.80
2023-04-17T02:19:38.266Z,2.60
2023-04-17T02:22:05.654Z,2.60
2023-04-17T02:24:32.924Z,2.93
2023-04-17T02:27:00.227Z,5.23
2023-04-17T02:29:27.440Z,2.80
2023-04-17T02:31:54.595Z,2.77
2023-04-17T02:34:21.786Z,2.80
2023-04-17T02:36:49.007Z,3.33
2023-04-17T02:39:16.472Z,2.80
2023-04-17T02:41:43.628Z,3.80
2023-04-17T02:44:11.056Z,3.00
2023-04-17T02:46:38.824Z,2.87
2023-04-17T02:49:06.063Z,3.10
2023-04-17T02:51:33.251Z,2.73
2023-04-17T02:54:00.508Z,2.70
2023-04-17T02:56:27.666Z,2.90
2023-04-17T02:58:54.828Z,3.10
2023-04-17T03:01:22.813Z,2.77
2023-04-17T03:03:50.448Z,2.80
2023-04-17T03:06:17.879Z,2.80
2023-04-17T03:08:45.320Z,2.83
2023-04-17T03:11:12.506Z,2.70
2023-04-17T03:13:39.722Z,2.87
2023-04-17T03:16:07.152Z,2.90
2023-04-17T03:18:35.582Z,3.20
2023-04-17T03:21:02.732Z,3.47
2023-04-17T03:23:29.899Z,3.00
2023-04-17T03:25:57.134Z,2.83
2023-04-17T03:28:24.366Z,2.80
2023-04-17T03:30:52.002Z,2.87
2023-04-17T03:33:19.231Z,2.93
2023-04-17T03:35:46.649Z,2.90
2023-04-17T03:38:13.971Z,2.70
2023-04-17T03:40:41.948Z,2.77
2023-04-17T03:43:09.131Z,2.60
2023-04-17T03:45:36.471Z,3.00
2023-04-17T03:48:03.880Z,3.23
2023-04-17T03:50:31.147Z,3.13
2023-04-17T03:52:58.549Z,3.07
2023-04-17T03:55:25.760Z,3.10
2023-04-17T03:57:52.999Z,2.90
2023-04-17T04:00:21.837Z,2.90
2023-04-17T04:02:49.376Z,3.63
2023-04-17T04:05:16.860Z,3.27
2023-04-17T04:07:44.098Z,3.40
2023-04-17T04:10:11.594Z,3.17
2023-04-17T04:12:38.788Z,3.03
2023-04-17T04:15:06.337Z,2.80
2023-04-17T04:17:33.552Z,3.27
2023-04-17T04:20:00.816Z,4.13
2023-04-17T04:22:29.240Z,3.00
2023-04-17T04:24:56.448Z,2.90
2023-04-17T04:27:23.706Z,2.70
2023-04-17T04:29:50.866Z,3.10
2023-04-17T04:32:18.106Z,2.90
2023-04-17T04:34:45.381Z,2.90
2023-04-17T04:37:16.003Z,2.90
2023-04-17T04:39:43.447Z,3.60
2023-04-17T04:42:10.724Z,3.40
2023-04-17T04:44:38.083Z,4.27
2023-04-17T04:47:05.301Z,3.40
2023-04-17T04:49:32.538Z,3.03
2023-04-17T04:51:59.690Z,2.87
2023-04-17T04:54:26.967Z,3.00
2023-04-17T04:56:54.185Z,2.90
2023-04-17T04:59:21.453Z,3.00
2023-04-17T05:01:49.322Z,4.40
2023-04-17T05:04:16.610Z,3.30
2023-04-17T05:06:43.873Z,4.73
2023-04-17T05:09:11.274Z,3.37
2023-04-17T05:11:38.713Z,5.90
2023-04-17T05:14:05.879Z,3.63
2023-04-17T05:16:33.076Z,5.80
2023-04-17T05:19:00.390Z,3.17
2023-04-17T05:21:29.812Z,3.30
2023-04-17T05:23:58.338Z,2.93
2023-04-17T05:26:25.628Z,3.20
2023-04-17T05:28:52.802Z,2.80
2023-04-17T05:31:20.833Z,3.50
2023-04-17T05:33:48.073Z,3.73
2023-04-17T05:36:15.292Z,2.80
2023-04-17T05:38:44.726Z,2.97
2023-04-17T05:41:13.192Z,2.80
2023-04-17T05:43:40.509Z,3.10
2023-04-17T05:46:09.286Z,3.37
2023-04-17T05:48:36.559Z,3.30
2023-04-17T05:51:03.961Z,3.47
2023-04-17T05:53:31.839Z,4.07
2023-04-17T05:55:59.078Z,2.70
2023-04-17T05:58:26.324Z,3.20
2023-04-17T06:00:53.567Z,3.70
2023-04-17T06:03:21.275Z,3.17
2023-04-17T06:05:48.663Z,2.80
2023-04-17T06:08:16.332Z,2.90
2023-04-17T06:10:45.756Z,2.83
2023-04-17T06:13:13.472Z,3.20
2023-04-17T06:15:40.677Z,2.80
2023-04-17T06:18:07.960Z,2.70
2023-04-17T06:20:35.939Z,2.97
2023-04-17T06:23:04.143Z,3.27
2023-04-17T06:25:31.395Z,2.60
2023-04-17T06:27:58.560Z,2.90
2023-04-17T06:30:25.723Z,2.97
2023-04-17T06:32:52.991Z,2.75
2023-04-17T06:35:20.300Z,2.67
2023-04-17T06:37:47.477Z,2.63
2023-04-17T06:40:14.656Z,2.83
2023-04-17T06:42:41.826Z,2.70
2023-04-17T06:45:09.208Z,3.03
2023-04-17T06:47:36.496Z,4.53
2023-04-17T06:50:03.801Z,2.73
2023-04-17T06:52:31.151Z,2.77
2023-04-17T06:54:59.113Z,2.57
2023-04-17T06:57:26.407Z,2.33
2023-04-17T06:59:53.573Z,2.60
2023-04-17T07:02:21.074Z,2.37
2023-04-17T07:04:48.514Z,2.40
2023-04-17T07:07:16.013Z,2.40
2023-04-17T07:09:44.158Z,2.40
2023-04-17T07:12:11.417Z,2.40
2023-04-17T07:14:40.597Z,2.50
2023-04-17T07:17:08.115Z,3.80
2023-04-17T07:19:35.674Z,2.63
2023-04-17T07:22:02.878Z,2.30
2023-04-17T07:24:34.765Z,2.10
2023-04-17T07:27:03.876Z,2.20
2023-04-17T07:29:31.657Z,2.47
2023-04-17T07:31:58.897Z,3.30
2023-04-17T07:34:26.197Z,2.57
2023-04-17T07:36:53.611Z,2.47
2023-04-17T07:39:20.909Z,2.43
2023-04-17T07:41:48.147Z,2.20
2023-04-17T07:44:15.351Z,2.53
2023-04-17T07:46:42.623Z,2.23
2023-04-17T07:49:12.096Z,2.20
2023-04-17T07:51:41.489Z,2.93
2023-04-17T07:54:08.783Z,2.20
2023-04-17T07:56:36.603Z,2.23
2023-04-17T07:59:04.822Z,2.10
2023-04-17T08:01:32.106Z,2.37
2023-04-17T08:03:59.798Z,2.20
2023-04-17T08:06:27.414Z,1.90
2023-04-17T08:08:54.681Z,2.20
2023-04-17T08:11:22.379Z,2.60
2023-04-17T08:13:49.585Z,2.10
2023-04-17T08:16:17.043Z,1.80
2023-04-17T08:18:44.251Z,2.63
2023-04-17T08:21:11.476Z,1.97
2023-04-17T08:23:38.907Z,2.50
2023-04-17T08:26:06.260Z,2.07
2023-04-17T08:28:33.474Z,2.40
2023-04-17T08:31:00.658Z,4.17
2023-04-17T08:33:27.886Z,3.10
2023-04-17T08:35:55.062Z,2.07
2023-04-17T08:38:22.280Z,1.70
2023-04-17T08:40:52.049Z,2.00
2023-04-17T08:43:21.086Z,1.90
2023-04-17T08:45:56.676Z,2.10
2023-04-17T08:48:24.714Z,2.00
2023-04-17T08:50:53.613Z,1.87
2023-04-17T08:53:21.298Z,1.80
2023-04-17T08:55:48.784Z,1.90
2023-04-17T08:58:16.094Z,2.13
2023-04-17T09:00:44.752Z,2.43
2023-04-17T09:03:13.926Z,2.00
2023-04-17T09:05:43.586Z,2.00
2023-04-17T09:08:22.319Z,2.00
2023-04-17T09:10:51.600Z,1.87
2023-04-17T09:13:20.555Z,1.97
2023-04-17T09:16:03.131Z,2.10
2023-04-17T09:18:31.713Z,2.20
2023-04-17T09:21:00.027Z,1.80
2023-04-17T09:23:29.746Z,1.77
2023-04-17T09:26:09.510Z,1.90
2023-04-17T09:28:36.986Z,1.80
2023-04-17T09:31:25.559Z,1.80
2023-04-17T09:34:00.399Z,1.70
2023-04-17T09:36:30.522Z,2.00
2023-04-17T09:39:02.649Z,2.97
2023-04-17T09:41:39.293Z,1.70
2023-04-17T09:44:06.750Z,1.80
2023-04-17T09:46:35.387Z,1.80
2023-04-17T09:49:14.632Z,1.97
2023-04-17T09:51:42.225Z,1.80
2023-04-17T09:54:11.769Z,1.60
2023-04-17T09:56:39.929Z,1.97
2023-04-17T09:59:07.201Z,1.80
2023-04-17T10:01:35.379Z,2.23
2023-04-17T10:04:03.571Z,1.87
2023-04-17T10:06:32.159Z,1.80
2023-04-17T10:08:59.501Z,1.60
2023-04-17T10:11:29.735Z,1.90
2023-04-17T10:14:04.504Z,1.70
2023-04-17T10:16:38.926Z,1.87
2023-04-17T10:19:34.159Z,2.00
2023-04-17T10:22:27.938Z,1.70
2023-04-17T10:25:12.846Z,1.80
2023-04-17T10:27:40.296Z,1.80
2023-04-17T10:30:12.578Z,1.93
2023-04-17T10:32:41.742Z,2.70
2023-04-17T10:35:17.805Z,1.83
2023-04-17T10:37:48.064Z,2.63
2023-04-17T10:40:22.238Z,1.70
2023-04-17T10:43:20.367Z,1.73
2023-04-17T10:46:02.034Z,1.50
2023-04-17T10:48:38.816Z,1.60
2023-04-17T10:51:29.318Z,2.43
2023-04-17T10:54:05.598Z,1.73
2023-04-17T10:56:38.639Z,2.03
2023-04-17T10:59:07.124Z,1.70
2023-04-17T11:01:49.055Z,2.20
2023-04-17T11:04:20.079Z,1.60
2023-04-17T11:06:47.655Z,1.60
2023-04-17T11:09:15.782Z,1.80
2023-04-17T11:11:44.890Z,1.80
2023-04-17T11:14:14.353Z,1.70
2023-04-17T11:16:43.301Z,1.90
2023-04-17T11:19:12.082Z,1.90
2023-04-17T11:21:42.026Z,1.53
2023-04-17T11:24:08.861Z,1.70
2023-04-17T11:26:45.747Z,1.77
2023-04-17T11:29:20.693Z,1.80
2023-04-17T11:31:48.507Z,1.60
2023-04-17T11:34:16.695Z,1.87
2023-04-17T11:36:53.243Z,2.00
2023-04-17T11:39:20.829Z,1.80
2023-04-17T11:41:48.105Z,1.50
2023-04-17T11:44:16.909Z,2.23
2023-04-17T11:46:44.386Z,1.50
2023-04-17T11:49:11.992Z,1.93
2023-04-17T11:51:39.356Z,1.70
2023-04-17T11:54:06.749Z,1.77
2023-04-17T11:56:33.959Z,1.93
2023-04-17T11:59:03.749Z,1.60
2023-04-17T12:01:31.350Z,1.70
2023-04-17T12:03:59.513Z,1.80
2023-04-17T12:06:38.913Z,2.10
2023-04-17T12:09:07.218Z,1.57
2023-04-17T12:11:34.808Z,2.33
2023-04-17T12:14:03.787Z,2.17
2023-04-17T12:16:31.459Z,1.60
2023-04-17T12:18:58.805Z,2.13
2023-04-17T12:21:25.971Z,1.57
2023-04-17T12:23:53.182Z,1.83
2023-04-17T12:26:20.420Z,2.07
2023-04-17T12:28:47.702Z,1.20
2023-04-17T12:31:14.882Z,1.60
2023-04-17T12:33:42.097Z,1.80
2023-04-17T12:36:09.463Z,1.60
2023-04-17T12:38:36.749Z,2.73
2023-04-17T12:41:04.027Z,1.97
2023-04-17T12:43:33.209Z,1.93
2023-04-17T12:46:00.417Z,1.80
2023-04-17T12:48:27.713Z,2.00
2023-04-17T12:50:54.918Z,2.00
2023-04-17T12:53:22.205Z,1.60
2023-04-17T12:55:49.390Z,1.97
2023-04-17T12:58:16.697Z,2.13
2023-04-17T13:00:44.425Z,2.20
2023-04-17T13:03:12.394Z,1.70
2023-04-17T13:05:40.052Z,2.10
2023-04-17T13:08:12.492Z,2.00
2023-04-17T13:10:39.708Z,1.97
2023-04-17T13:13:06.988Z,1.87
2023-04-17T13:15:34.223Z,2.00
2023-04-17T13:18:02.383Z,1.80
2023-04-17T13:20:29.973Z,1.93
2023-04-17T13:22:58.898Z,1.60
2023-04-17T13:25:26.284Z,1.80
2023-04-17T13:27:55.195Z,1.83
2023-04-17T13:30:22.944Z,1.70
2023-04-17T13:32:50.313Z,1.90
2023-04-17T13:35:17.614Z,1.77
2023-04-17T13:37:44.845Z,1.70
2023-04-17T13:40:12.165Z,2.20
2023-04-17T13:42:39.466Z,1.80
2023-04-17T13:45:07.091Z,1.83
2023-04-17T13:47:34.307Z,1.90
2023-04-17T13:50:01.802Z,2.00
2023-04-17T13:52:29.030Z,5.50
2023-04-17T13:54:56.249Z,1.87
2023-04-17T13:57:23.403Z,1.77
2023-04-17T13:59:50.590Z,2.37
2023-04-17T14:02:17.914Z,2.20
2023-04-17T14:04:45.302Z,1.97
2023-04-17T14:07:15.373Z,2.37
2023-04-17T14:09:42.622Z,1.93
2023-04-17T14:12:10.132Z,2.10
2023-04-17T14:14:37.339Z,1.73
2023-04-17T14:17:04.605Z,2.20
2023-04-17T14:19:31.974Z,2.07
2023-04-17T14:21:59.143Z,2.60
2023-04-17T14:24:25.981Z,2.07
2023-04-17T14:26:53.125Z,2.00
2023-04-17T14:29:21.266Z,1.80
2023-04-17T14:31:48.591Z,1.53
2023-04-17T14:34:15.993Z,1.83
2023-04-17T14:36:43.651Z,1.90
2023-04-17T14:39:11.381Z,2.03
2023-04-17T14:41:38.823Z,1.77
2023-04-17T14:44:06.592Z,1.77
2023-04-17T14:46:33.888Z,1.70
2023-04-17T14:49:01.129Z,1.60
2023-04-17T14:51:28.459Z,1.80
2023-04-17T14:53:55.979Z,1.80
2023-04-17T14:56:23.221Z,1.97
2023-04-17T14:58:50.400Z,1.77
2023-04-17T15:01:17.703Z,1.60
2023-04-17T15:03:47.735Z,1.70
2023-04-17T15:06:16.458Z,2.20
2023-04-17T15:08:43.772Z,1.80
2023-04-17T15:11:11.026Z,1.97
2023-04-17T15:13:40.467Z,2.10
2023-04-17T15:16:09.653Z,2.10
2023-04-17T15:18:39.398Z,1.60
2023-04-17T15:21:06.869Z,1.73
2023-04-17T15:23:34.813Z,1.60
2023-04-17T15:26:02.149Z,1.90
2023-04-17T15:28:29.495Z,1.63
2023-04-17T15:30:57.213Z,2.57
2023-04-17T15:33:24.493Z,1.73
2023-04-17T15:35:58.586Z,1.60
2023-04-17T15:38:26.522Z,1.60
2023-04-17T15:40:53.952Z,1.97
2023-04-17T15:43:21.513Z,1.83
2023-04-17T15:45:49.127Z,2.30
2023-04-17T15:48:16.435Z,1.80
2023-04-17T15:50:43.623Z,1.60
2023-04-17T15:53:11.115Z,1.70
2023-04-17T15:55:38.583Z,1.93
2023-04-17T15:58:06.231Z,2.03
2023-04-17T16:00:34.112Z,1.90
2023-04-17T16:03:01.548Z,1.90
2023-04-17T16:05:30.018Z,2.00
2023-04-17T16:07:57.316Z,1.67
2023-04-17T16:10:24.576Z,1.90
2023-04-17T16:12:51.802Z,1.93
2023-04-17T16:15:19.012Z,1.80
2023-04-17T16:17:48.618Z,1.90
2023-04-17T16:20:16.025Z,1.80
2023-04-17T16:22:43.217Z,2.20
2023-04-17T16:25:12.157Z,1.83
2023-04-17T16:27:40.371Z,2.00
2023-04-17T16:30:08.689Z,1.70
2023-04-17T16:32:36.025Z,1.80
2023-04-17T16:35:03.264Z,1.70
2023-04-17T16:37:30.525Z,1.77
2023-04-17T16:39:57.719Z,1.93
2023-04-17T16:42:24.922Z,1.87
2023-04-17T16:44:52.090Z,1.60
2023-04-17T16:47:19.358Z,1.97
2023-04-17T16:49:46.561Z,1.87
2023-04-17T16:52:13.765Z,1.80
2023-04-17T16:54:41.036Z,1.80
2023-04-17T16:57:08.753Z,1.70
2023-04-17T16:59:35.899Z,2.00
2023-04-17T17:02:03.114Z,1.67
2023-04-17T17:04:30.916Z,2.00
2023-04-17T17:06:58.198Z,1.90
2023-04-17T17:09:25.945Z,3.03
2023-04-17T17:11:53.197Z,1.70
2023-04-17T17:14:20.487Z,1.80
2023-04-17T17:16:47.776Z,1.97
2023-04-17T17:19:15.375Z,2.20
2023-04-17T17:21:42.621Z,1.93
2023-04-17T17:24:09.814Z,1.87
2023-04-17T17:26:37.339Z,1.80
2023-04-17T17:29:04.855Z,1.80
2023-04-17T17:31:33.496Z,1.83
2023-04-17T17:34:11.791Z,1.80
2023-04-17T17:36:49.625Z,1.93
2023-04-17T17:39:16.949Z,1.90
2023-04-17T17:41:46.616Z,1.70
2023-04-17T17:44:14.955Z,1.87
2023-04-17T17:46:42.350Z,2.23
2023-04-17T17:49:09.544Z,2.00
2023-04-17T17:51:36.818Z,2.17
2023-04-17T17:54:04.060Z,2.10
2023-04-17T17:56:31.283Z,1.80
2023-04-17T17:58:58.502Z,2.07
2023-04-17T18:01:25.841Z,1.90
2023-04-17T18:03:53.677Z,2.00
2023-04-17T18:06:21.431Z,2.10
2023-04-17T18:08:48.798Z,2.03
2023-04-17T18:11:15.985Z,2.43
2023-04-17T18:13:43.205Z,1.70
2023-04-17T18:16:10.727Z,1.90
2023-04-17T18:18:38.884Z,2.30
2023-04-17T18:21:09.464Z,1.93
2023-04-17T18:23:36.722Z,1.73
2023-04-17T18:26:04.234Z,2.07
2023-04-17T18:28:31.719Z,1.67
2023-04-17T18:30:58.943Z,1.80
2023-04-17T18:33:26.185Z,2.20
2023-04-17T18:35:53.333Z,1.80
2023-04-17T18:38:20.602Z,1.90
2023-04-17T18:40:47.841Z,1.90
2023-04-17T18:43:15.451Z,2.10
2023-04-17T18:45:42.636Z,1.70
2023-04-17T18:48:09.885Z,2.07
2023-04-17T18:50:38.726Z,2.10
2023-04-17T18:53:05.925Z,2.90
2023-04-17T18:55:33.246Z,1.93
2023-04-17T18:58:00.455Z,2.27
2023-04-17T19:00:27.652Z,2.00
2023-04-17T19:02:55.008Z,2.13
2023-04-17T19:05:22.828Z,1.93
2023-04-17T19:07:51.224Z,2.10
2023-04-17T19:10:18.506Z,2.00
2023-04-17T19:12:46.178Z,2.00
2023-04-17T19:15:13.378Z,1.80
2023-04-17T19:17:40.732Z,2.00
2023-04-17T19:20:08.583Z,1.90
2023-04-17T19:22:35.966Z,1.90
2023-04-17T19:25:03.162Z,1.90
2023-04-17T19:27:30.450Z,1.80
2023-04-17T19:29:57.664Z,1.90
2023-04-17T19:32:24.899Z,2.03
2023-04-17T19:34:52.171Z,2.00
2023-04-17T19:37:19.450Z,2.20
2023-04-17T19:39:46.628Z,1.93
2023-04-17T19:42:13.816Z,2.30
2023-04-17T19:44:41.059Z,2.17
2023-04-17T19:47:08.293Z,2.27
2023-04-17T19:49:35.553Z,2.10
2023-04-17T19:52:03.075Z,1.90
2023-04-17T19:54:30.332Z,2.10
2023-04-17T19:56:57.498Z,2.13
2023-04-17T19:59:24.657Z,2.27
2023-04-17T20:01:51.969Z,2.40
2023-04-17T20:04:18.936Z,2.00
2023-04-17T20:06:46.274Z,1.90
2023-04-17T20:09:14.830Z,2.70
2023-04-17T20:11:42.360Z,2.07
2023-04-17T20:14:09.577Z,2.20
2023-04-17T20:16:36.862Z,2.10
2023-04-17T20:19:04.147Z,2.73
2023-04-17T20:21:31.340Z,2.03
2023-04-17T20:23:59.568Z,2.13
2023-04-17T20:26:26.876Z,2.10
2023-04-17T20:28:57.149Z,3.63
2023-04-17T20:31:24.420Z,2.20
2023-04-17T20:33:51.684Z,2.20
2023-04-17T20:36:18.837Z,3.03
2023-04-17T20:38:46.227Z,2.20
2023-04-17T20:41:13.393Z,2.23
2023-04-17T20:43:40.803Z,2.40
2023-04-17T20:46:08.069Z,2.30
2023-04-17T20:48:35.445Z,2.00
2023-04-17T20:51:05.447Z,2.10
2023-04-17T20:53:32.993Z,2.30
2023-04-17T20:56:00.452Z,2.10
2023-04-17T20:58:27.674Z,2.70
2023-04-17T21:01:01.152Z,2.13
2023-04-17T21:03:33.277Z,2.20
2023-04-17T21:06:00.835Z,2.50
2023-04-17T21:08:28.104Z,2.30
2023-04-17T21:10:55.418Z,2.50
2023-04-17T21:13:22.948Z,2.30
2023-04-17T21:15:50.252Z,2.57
2023-04-17T21:18:17.455Z,2.30
2023-04-17T21:20:44.697Z,2.73
2023-04-17T21:23:11.967Z,2.30
2023-04-17T21:25:39.158Z,2.40
2023-04-17T21:28:06.353Z,2.30
2023-04-17T21:30:33.606Z,2.30
2023-04-17T21:33:00.880Z,2.47
2023-04-17T21:35:28.183Z,2.30
2023-04-17T21:37:55.500Z,2.50
2023-04-17T21:40:22.674Z,2.33
2023-04-17T21:42:49.856Z,2.73
2023-04-17T21:45:17.052Z,2.93
2023-04-17T21:47:44.248Z,2.70
2023-04-17T21:50:11.567Z,2.70
2023-04-17T21:52:38.879Z,2.60
2023-04-17T21:55:07.738Z,2.60
2023-04-17T21:57:35.335Z,2.40
2023-04-17T22:00:04.369Z,2.47
2023-04-17T22:02:31.745Z,2.60
2023-04-17T22:04:59.029Z,2.50
2023-04-17T22:07:26.320Z,2.50
2023-04-17T22:09:53.451Z,2.77
2023-04-17T22:12:20.922Z,2.87
2023-04-17T22:14:48.301Z,2.27
2023-04-17T22:17:15.904Z,2.53
2023-04-17T22:19:43.093Z,2.53
2023-04-17T22:22:10.633Z,2.40
2023-04-17T22:24:37.778Z,3.43
2023-04-17T22:27:04.979Z,2.60
2023-04-17T22:29:32.219Z,2.90
2023-04-17T22:31:59.429Z,4.43
2023-04-17T22:34:26.601Z,2.93
2023-04-17T22:36:53.791Z,2.60
2023-04-17T22:39:21.332Z,2.60
2023-04-17T22:41:48.502Z,3.67
2023-04-17T22:44:15.739Z,2.40
2023-04-17T22:46:42.973Z,2.40
2023-04-17T22:49:10.189Z,2.27
2023-04-17T22:51:37.583Z,2.40
2023-04-17T22:54:15.084Z,2.50
2023-04-17T22:56:49.146Z,2.40
2023-04-17T22:59:16.380Z,2.57
2023-04-17T23:01:43.593Z,2.40
2023-04-17T23:04:10.921Z,2.40
2023-04-17T23:06:38.253Z,2.47
2023-04-17T23:09:05.516Z,2.50
2023-04-17T23:11:32.919Z,2.47
2023-04-17T23:14:00.510Z,2.30
2023-04-17T23:16:27.788Z,2.60
2023-04-17T23:18:54.938Z,2.60
2023-04-17T23:21:22.237Z,2.70
2023-04-17T23:23:49.372Z,4.00
2023-04-17T23:26:16.669Z,2.70
2023-04-17T23:28:44.148Z,2.40
2023-04-17T23:31:11.415Z,2.57
2023-04-17T23:33:38.595Z,2.30
2023-04-17T23:36:06.829Z,2.37
2023-04-17T23:38:34.025Z,2.43
2023-04-17T23:41:01.176Z,2.37
2023-04-17T23:43:28.364Z,2.40
2023-04-17T23:45:56.219Z,2.50
2023-04-17T23:48:23.460Z,2.53
2023-04-17T23:50:50.890Z,2.60
2023-04-17T23:53:18.074Z,2.60
2023-04-17T23:55:45.355Z,2.30
2023-04-17T23:58:12.565Z,2.33
